createdAt,value
2019-03-15T00:01:55.094Z,93.80
2019-03-15T00:04:25.435Z,93.80
2019-03-15T00:06:55.781Z,93.80
2019-03-15T00:09:26.112Z,93.80
2019-03-15T00:11:56.429Z,93.70
2019-03-15T00:14:28.391Z,93.70
2019-03-15T00:16:58.728Z,93.80
2019-03-15T00:19:29.125Z,93.80
2019-03-15T00:21:59.430Z,93.80
2019-03-15T00:24:29.774Z,93.80
2019-03-15T00:27:00.194Z,93.90
2019-03-15T00:29:30.518Z,93.90
2019-03-15T00:32:00.931Z,93.80
2019-03-15T00:34:31.260Z,94.00
2019-03-15T00:37:01.549Z,94.10
2019-03-15T00:39:31.873Z,94.10
2019-03-15T00:42:02.156Z,94.10
2019-03-15T00:44:32.482Z,94.20
2019-03-15T00:47:03.071Z,94.20
2019-03-15T00:49:33.422Z,94.20
2019-03-15T00:52:03.787Z,94.40
2019-03-15T00:54:34.069Z,94.40
2019-03-15T00:57:04.378Z,94.50
2019-03-15T00:59:34.716Z,94.50
2019-03-15T01:02:05.027Z,94.50
2019-03-15T01:04:35.328Z,94.50
2019-03-15T01:07:05.706Z,94.60
2019-03-15T01:09:35.973Z,94.70
2019-03-15T01:12:06.306Z,94.70
2019-03-15T01:14:36.606Z,94.80
2019-03-15T01:17:06.942Z,94.90
2019-03-15T01:19:37.234Z,94.90
2019-03-15T01:22:07.590Z,95.00
2019-03-15T01:24:37.921Z,95.10
2019-03-15T01:27:08.301Z,95.40
2019-03-15T01:29:39.794Z,95.40
2019-03-15T01:32:10.823Z,95.60
2019-03-15T01:34:41.125Z,95.90
2019-03-15T01:37:11.494Z,95.90
2019-03-15T01:39:41.782Z,96.10
2019-03-15T01:42:13.707Z,96.20
2019-03-15T01:44:44.083Z,96.20
2019-03-15T01:47:14.420Z,96.40
2019-03-15T01:49:44.894Z,96.50
2019-03-15T01:52:16.300Z,96.70
2019-03-15T01:54:46.686Z,96.80
2019-03-15T01:57:17.050Z,97.00
2019-03-15T01:59:48.386Z,97.10
2019-03-15T02:02:18.779Z,97.30
2019-03-15T02:04:49.106Z,97.50
2019-03-15T02:07:19.475Z,97.80
2019-03-15T02:09:49.849Z,97.70
2019-03-15T02:12:20.165Z,97.70
2019-03-15T02:14:50.889Z,97.80
2019-03-15T02:17:21.291Z,97.90
2019-03-15T02:19:51.685Z,97.90
2019-03-15T02:22:22.013Z,97.80
2019-03-15T02:24:52.351Z,97.80
2019-03-15T02:27:22.655Z,97.80
2019-03-15T02:29:53.809Z,97.80
2019-03-15T02:32:24.122Z,97.80
2019-03-15T02:34:54.462Z,97.80
2019-03-15T02:37:24.775Z,98.00
2019-03-15T02:39:55.121Z,98.00
2019-03-15T02:42:26.061Z,98.10
2019-03-15T02:44:56.701Z,98.00
2019-03-15T02:47:29.036Z,98.00
2019-03-15T02:50:02.397Z,98.10
2019-03-15T02:52:32.688Z,98.20
2019-03-15T02:55:03.034Z,98.10
2019-03-15T02:57:33.374Z,98.30
2019-03-15T03:00:04.274Z,98.20
2019-03-15T03:02:35.153Z,98.30
2019-03-15T03:05:05.430Z,98.30
2019-03-15T03:07:35.772Z,98.30
2019-03-15T03:10:06.171Z,98.30
2019-03-15T03:12:36.490Z,98.20
2019-03-15T03:15:07.384Z,98.20
2019-03-15T03:17:37.681Z,98.20
2019-03-15T03:20:08.187Z,98.20
2019-03-15T03:22:38.473Z,98.10
2019-03-15T03:25:08.793Z,98.20
2019-03-15T03:27:39.138Z,98.20
2019-03-15T03:30:10.437Z,98.30
2019-03-15T03:32:42.902Z,98.20
2019-03-15T03:35:13.713Z,98.30
2019-03-15T03:37:45.170Z,98.30
2019-03-15T03:40:19.821Z,98.30
2019-03-15T03:42:47.801Z,98.30
2019-03-15T03:45:18.098Z,98.20
2019-03-15T03:47:48.406Z,98.20
2019-03-15T03:50:18.748Z,98.20
2019-03-15T03:52:49.142Z,98.10
2019-03-15T03:55:19.620Z,98.20
2019-03-15T03:57:49.969Z,98.20
2019-03-15T04:00:20.805Z,98.20
2019-03-15T04:02:53.277Z,98.20
2019-03-15T04:05:23.218Z,98.20
2019-03-15T04:07:53.507Z,98.10
2019-03-15T04:10:23.881Z,98.10
2019-03-15T04:12:54.212Z,98.10
2019-03-15T04:15:24.540Z,98.10
2019-03-15T04:17:54.870Z,98.10
2019-03-15T04:20:25.417Z,98.10
2019-03-15T04:22:55.748Z,98.00
2019-03-15T04:25:26.094Z,97.90
2019-03-15T04:27:56.386Z,97.90
2019-03-15T04:30:26.787Z,97.90
2019-03-15T04:32:57.234Z,97.90
2019-03-15T04:35:31.488Z,97.80
2019-03-15T04:38:01.807Z,97.80
2019-03-15T04:40:32.186Z,97.80
2019-03-15T04:43:02.546Z,97.80
2019-03-15T04:45:32.863Z,97.80
2019-03-15T04:48:03.270Z,97.70
2019-03-15T04:50:33.608Z,97.70
2019-03-15T04:53:03.957Z,97.90
2019-03-15T04:55:34.297Z,97.90
2019-03-15T04:58:04.652Z,97.90
2019-03-15T05:00:36.210Z,98.00
2019-03-15T05:03:06.510Z,98.10
2019-03-15T05:05:36.838Z,98.20
2019-03-15T05:08:07.221Z,98.30
2019-03-15T05:10:37.633Z,98.40
2019-03-15T05:13:07.903Z,98.50
2019-03-15T05:15:38.262Z,98.70
2019-03-15T05:18:08.600Z,98.90
2019-03-15T05:20:38.978Z,98.90
2019-03-15T05:23:09.355Z,99.20
2019-03-15T05:25:39.658Z,99.40
2019-03-15T05:28:09.953Z,99.70
2019-03-15T05:30:41.099Z,99.50
2019-03-15T05:33:11.506Z,99.60
2019-03-15T05:35:43.049Z,99.60
2019-03-15T05:38:13.358Z,99.70
2019-03-15T05:40:43.858Z,99.70
2019-03-15T05:43:14.228Z,99.80
2019-03-15T05:45:44.606Z,99.80
2019-03-15T05:48:14.966Z,99.90
2019-03-15T05:50:45.346Z,99.80
2019-03-15T05:53:15.696Z,99.90
2019-03-15T05:55:46.081Z,99.90
2019-03-15T05:58:16.510Z,99.70
2019-03-15T06:00:47.461Z,99.80
2019-03-15T06:03:17.926Z,99.90
2019-03-15T06:05:48.830Z,99.90
2019-03-15T06:08:19.294Z,99.90
2019-03-15T06:10:49.774Z,99.90
2019-03-15T06:13:20.155Z,99.90
2019-03-15T06:15:51.606Z,99.90
2019-03-15T06:18:22.014Z,99.90
2019-03-15T06:20:52.618Z,99.80
2019-03-15T06:23:23.070Z,99.80
2019-03-15T06:25:53.577Z,99.90
2019-03-15T06:28:23.911Z,99.90
2019-03-15T06:30:55.393Z,99.90
2019-03-15T06:33:28.595Z,99.90
2019-03-15T06:35:57.914Z,99.90
2019-03-15T06:38:28.249Z,99.90
2019-03-15T06:40:58.605Z,99.90
2019-03-15T06:43:28.988Z,99.90
2019-03-15T06:45:59.338Z,99.90
2019-03-15T06:48:29.695Z,99.90
2019-03-15T06:51:00.195Z,99.90
2019-03-15T06:53:30.777Z,99.90
2019-03-15T06:56:01.784Z,99.90
2019-03-15T06:58:32.325Z,99.90
2019-03-15T07:01:04.469Z,99.90
2019-03-15T07:03:34.894Z,99.90
2019-03-15T07:06:05.413Z,99.90
2019-03-15T07:08:35.988Z,99.90
2019-03-15T07:11:06.500Z,99.90
2019-03-15T07:13:37.025Z,99.90
2019-03-15T07:16:07.706Z,99.90
2019-03-15T07:18:38.310Z,99.90
2019-03-15T07:21:09.840Z,99.90
2019-03-15T07:23:41.726Z,99.90
2019-03-15T07:26:12.257Z,99.90
2019-03-15T07:28:43.270Z,99.90
2019-03-15T07:31:14.985Z,99.90
2019-03-15T07:33:45.324Z,99.90
2019-03-15T07:36:15.667Z,99.90
2019-03-15T07:38:45.999Z,99.90
2019-03-15T07:41:16.386Z,99.90
2019-03-15T07:43:46.732Z,99.90
2019-03-15T07:46:17.055Z,99.90
2019-03-15T07:48:47.375Z,99.90
2019-03-15T07:51:17.677Z,99.90
2019-03-15T07:53:48.068Z,99.50
2019-03-15T07:56:18.510Z,99.70
2019-03-15T07:58:48.861Z,99.60
2019-03-15T08:01:20.597Z,99.60
2019-03-15T08:03:52.009Z,99.50
2019-03-15T08:06:34.233Z,99.30
2019-03-15T08:08:54.304Z,99.10
2019-03-15T08:11:24.713Z,99.00
2019-03-15T08:13:56.215Z,99.00
2019-03-15T08:16:26.569Z,99.10
2019-03-15T08:18:56.987Z,99.20
2019-03-15T08:21:27.334Z,99.00
2019-03-15T08:23:57.945Z,98.90
2019-03-15T08:26:30.220Z,98.80
2019-03-15T08:29:00.414Z,98.70
2019-03-15T08:31:32.185Z,98.30
2019-03-15T08:34:02.686Z,98.40
2019-03-15T08:36:33.168Z,98.30
2019-03-15T08:39:04.714Z,98.10
2019-03-15T08:41:35.113Z,98.20
2019-03-15T08:44:05.961Z,98.30
2019-03-15T08:46:36.366Z,98.40
2019-03-15T08:49:06.729Z,98.00
2019-03-15T08:51:37.073Z,98.10
2019-03-15T08:54:07.399Z,98.10
2019-03-15T08:56:37.855Z,98.00
2019-03-15T08:59:08.257Z,98.10
2019-03-15T09:01:38.667Z,98.20
2019-03-15T09:04:09.027Z,98.20
2019-03-15T09:06:42.000Z,98.00
2019-03-15T09:09:12.955Z,97.80
2019-03-15T09:11:44.797Z,97.20
2019-03-15T09:14:15.127Z,96.50
2019-03-15T09:16:45.477Z,96.70
2019-03-15T09:19:23.794Z,96.80
2019-03-15T09:21:54.187Z,97.10
2019-03-15T09:24:24.510Z,97.00
2019-03-15T09:26:54.821Z,96.50
2019-03-15T09:29:26.245Z,96.40
2019-03-15T09:32:06.141Z,96.20
2019-03-15T09:34:28.555Z,96.20
2019-03-15T09:36:58.899Z,96.00
2019-03-15T09:39:29.311Z,95.60
2019-03-15T09:41:59.667Z,95.90
2019-03-15T09:44:29.950Z,95.70
2019-03-15T09:47:02.480Z,95.70
2019-03-15T09:49:32.308Z,95.60
2019-03-15T09:52:02.674Z,96.10
2019-03-15T09:54:32.987Z,95.90
2019-03-15T09:57:03.349Z,95.80
2019-03-15T09:59:33.666Z,95.90
2019-03-15T10:02:07.836Z,96.10
2019-03-15T10:04:38.400Z,96.30
2019-03-15T10:07:08.844Z,96.00
2019-03-15T10:09:45.685Z,95.90
2019-03-15T10:12:11.159Z,95.70
2019-03-15T10:14:41.447Z,95.30
2019-03-15T10:17:11.882Z,94.80
2019-03-15T10:19:42.196Z,94.90
2019-03-15T10:22:12.532Z,94.90
2019-03-15T10:24:42.856Z,94.60
2019-03-15T10:27:13.202Z,94.50
2019-03-15T10:29:43.536Z,94.30
2019-03-15T10:32:14.546Z,93.60
2019-03-15T10:34:44.887Z,93.10
2019-03-15T10:37:15.198Z,93.40
2019-03-15T10:39:45.533Z,93.50
2019-03-15T10:42:15.840Z,93.60
2019-03-15T10:44:46.199Z,93.20
2019-03-15T10:47:16.485Z,93.20
2019-03-15T10:49:47.042Z,92.60
2019-03-15T10:52:17.336Z,92.50
2019-03-15T10:54:47.685Z,92.40
2019-03-15T10:57:17.994Z,92.60
2019-03-15T10:59:48.446Z,91.70
2019-03-15T11:02:18.798Z,91.30
2019-03-15T11:04:49.100Z,91.60
2019-03-15T11:07:19.476Z,91.60
2019-03-15T11:09:49.792Z,91.40
2019-03-15T11:12:20.124Z,90.80
2019-03-15T11:14:50.544Z,90.60
2019-03-15T11:17:20.856Z,88.50
2019-03-15T11:19:51.212Z,88.00
2019-03-15T11:22:21.564Z,88.50
2019-03-15T11:24:51.945Z,87.50
2019-03-15T11:27:22.336Z,89.70
2019-03-15T11:29:52.832Z,89.00
2019-03-15T11:32:24.004Z,87.80
2019-03-15T11:34:54.384Z,88.50
2019-03-15T11:37:24.746Z,89.10
2019-03-15T11:39:55.034Z,88.40
2019-03-15T11:42:25.467Z,89.00
2019-03-15T11:44:55.804Z,88.30
2019-03-15T11:47:26.274Z,85.70
2019-03-15T11:49:56.657Z,85.30
2019-03-15T11:52:27.027Z,84.40
2019-03-15T11:54:57.454Z,84.70
2019-03-15T11:57:27.899Z,84.20
2019-03-15T11:59:58.587Z,83.80
2019-03-15T12:02:30.508Z,83.50
2019-03-15T12:05:00.956Z,80.90
2019-03-15T12:07:31.350Z,81.60
2019-03-15T12:10:01.758Z,78.90
2019-03-15T12:12:32.274Z,79.50
2019-03-15T12:15:02.680Z,79.80
2019-03-15T12:17:33.003Z,76.10
2019-03-15T12:20:03.363Z,75.70
2019-03-15T12:22:33.692Z,74.20
2019-03-15T12:25:05.470Z,73.60
2019-03-15T12:27:35.805Z,72.30
2019-03-15T12:30:06.941Z,72.90
2019-03-15T12:32:37.918Z,72.20
2019-03-15T12:35:10.018Z,72.40
2019-03-15T12:37:40.366Z,73.10
2019-03-15T12:40:10.922Z,73.50
2019-03-15T12:42:41.406Z,74.30
2019-03-15T12:45:12.149Z,74.60
2019-03-15T12:47:42.546Z,75.10
2019-03-15T12:50:13.736Z,74.90
2019-03-15T12:52:48.528Z,74.30
2019-03-15T12:55:16.194Z,75.80
2019-03-15T12:57:49.717Z,76.80
2019-03-15T13:00:20.237Z,77.40
2019-03-15T13:02:51.975Z,78.70
2019-03-15T13:05:22.314Z,79.50
2019-03-15T13:07:52.654Z,81.10
2019-03-15T13:10:23.032Z,82.20
2019-03-15T13:12:53.403Z,82.70
2019-03-15T13:15:23.724Z,82.90
2019-03-15T13:17:54.099Z,82.20
2019-03-15T13:20:24.476Z,82.30
2019-03-15T13:22:54.884Z,81.30
2019-03-15T13:25:25.231Z,80.00
2019-03-15T13:27:55.706Z,80.40
2019-03-15T13:30:26.068Z,78.70
2019-03-15T13:32:56.842Z,79.20
2019-03-15T13:35:27.249Z,79.30
2019-03-15T13:37:57.604Z,79.40
2019-03-15T13:40:28.000Z,78.80
2019-03-15T13:42:58.314Z,79.30
2019-03-15T13:45:28.776Z,78.40
2019-03-15T13:47:59.956Z,79.00
2019-03-15T13:50:31.970Z,80.60
2019-03-15T13:53:02.324Z,79.20
2019-03-15T13:55:32.839Z,80.50
2019-03-15T13:58:03.202Z,81.90
2019-03-15T14:00:33.580Z,82.80
2019-03-15T14:03:05.527Z,84.20
2019-03-15T14:05:35.842Z,84.40
2019-03-15T14:08:11.619Z,83.50
2019-03-15T14:10:48.564Z,82.00
2019-03-15T14:13:11.978Z,81.10
2019-03-15T14:15:42.270Z,80.00
2019-03-15T14:18:12.824Z,80.30
2019-03-15T14:20:43.146Z,81.10
2019-03-15T14:23:13.488Z,81.30
2019-03-15T14:25:43.790Z,81.40
2019-03-15T14:28:14.139Z,82.20
2019-03-15T14:30:44.436Z,82.60
2019-03-15T14:33:14.804Z,83.00
2019-03-15T14:35:45.137Z,84.00
2019-03-15T14:38:16.290Z,84.90
2019-03-15T14:40:46.692Z,85.90
2019-03-15T14:43:17.263Z,86.60
2019-03-15T14:45:47.844Z,87.20
2019-03-15T14:48:18.322Z,87.40
2019-03-15T14:50:48.629Z,85.70
2019-03-15T14:53:18.963Z,81.60
2019-03-15T14:55:49.340Z,82.40
2019-03-15T14:58:19.663Z,84.20
2019-03-15T15:00:49.990Z,87.00
2019-03-15T15:03:21.672Z,89.60
2019-03-15T15:05:52.037Z,90.50
2019-03-15T15:08:22.404Z,90.80
2019-03-15T15:10:52.812Z,90.80
2019-03-15T15:13:23.316Z,91.40
2019-03-15T15:15:53.708Z,91.50
2019-03-15T15:18:24.086Z,91.60
2019-03-15T15:20:54.448Z,91.70
2019-03-15T15:23:24.788Z,91.80
2019-03-15T15:25:55.244Z,91.90
2019-03-15T15:28:25.670Z,91.90
2019-03-15T15:30:56.131Z,91.90
2019-03-15T15:33:28.769Z,92.10
2019-03-15T15:35:59.254Z,92.30
2019-03-15T15:38:29.528Z,92.50
2019-03-15T15:41:02.289Z,92.80
2019-03-15T15:43:32.704Z,93.00
2019-03-15T15:46:03.062Z,93.20
2019-03-15T15:48:33.408Z,93.20
2019-03-15T15:51:03.764Z,93.40
2019-03-15T15:53:35.245Z,93.50
2019-03-15T15:56:05.560Z,93.60
2019-03-15T15:58:35.894Z,93.70
2019-03-15T16:01:06.216Z,93.80
2019-03-15T16:03:37.777Z,93.80
2019-03-15T16:06:08.262Z,93.90
2019-03-15T16:08:38.586Z,94.00
2019-03-15T16:11:08.985Z,93.70
2019-03-15T16:13:39.636Z,93.60
2019-03-15T16:16:10.000Z,93.50
2019-03-15T16:18:41.027Z,93.30
2019-03-15T16:21:11.868Z,93.10
2019-03-15T16:23:42.215Z,93.20
2019-03-15T16:26:13.133Z,93.30
2019-03-15T16:28:43.855Z,93.30
2019-03-15T16:31:14.491Z,93.30
2019-03-15T16:33:45.496Z,93.50
2019-03-15T16:36:15.835Z,93.50
2019-03-15T16:38:46.170Z,93.60
2019-03-15T16:41:16.507Z,93.80
2019-03-15T16:43:46.862Z,93.90
2019-03-15T16:46:17.150Z,93.90
2019-03-15T16:48:47.496Z,93.90
2019-03-15T16:51:19.770Z,94.00
2019-03-15T16:53:49.818Z,94.00
2019-03-15T16:56:20.430Z,94.10
2019-03-15T16:58:50.744Z,94.20
2019-03-15T17:01:21.350Z,94.30
2019-03-15T17:03:51.717Z,94.40
2019-03-15T17:06:22.076Z,94.50
2019-03-15T17:08:52.398Z,94.60
2019-03-15T17:11:22.682Z,94.70
2019-03-15T17:13:53.121Z,94.80
2019-03-15T17:16:23.437Z,94.90
2019-03-15T17:18:53.688Z,95.00
2019-03-15T17:21:24.008Z,95.00
2019-03-15T17:23:54.360Z,95.10
2019-03-15T17:26:24.686Z,95.20
2019-03-15T17:28:58.889Z,95.20
2019-03-15T17:31:26.997Z,95.20
2019-03-15T17:33:57.348Z,95.10
2019-03-15T17:36:27.670Z,95.10
2019-03-15T17:38:58.048Z,95.00
2019-03-15T17:41:28.776Z,95.10
2019-03-15T17:44:00.847Z,95.10
2019-03-15T17:46:31.203Z,94.90
2019-03-15T17:49:01.529Z,94.90
2019-03-15T17:51:31.860Z,94.90
2019-03-15T17:54:02.190Z,94.80
2019-03-15T17:56:32.528Z,94.80
2019-03-15T17:59:12.415Z,94.70
2019-03-15T18:01:34.857Z,94.80
2019-03-15T18:04:05.336Z,94.70
2019-03-15T18:06:35.885Z,94.90
2019-03-15T18:09:07.390Z,94.70
2019-03-15T18:11:37.713Z,94.60
2019-03-15T18:14:08.146Z,94.60
2019-03-15T18:16:38.571Z,94.70
2019-03-15T18:19:08.921Z,94.70
2019-03-15T18:21:39.275Z,94.80
2019-03-15T18:24:09.597Z,94.70
2019-03-15T18:26:39.915Z,94.80
2019-03-15T18:29:10.258Z,94.80
2019-03-15T18:31:40.615Z,94.90
2019-03-15T18:34:11.565Z,94.90
2019-03-15T18:36:43.153Z,94.90
2019-03-15T18:39:13.620Z,95.00
2019-03-15T18:41:44.390Z,95.00
2019-03-15T18:44:14.708Z,95.10
2019-03-15T18:46:45.051Z,95.10
2019-03-15T18:49:18.463Z,95.10
2019-03-15T18:51:47.320Z,95.20
2019-03-15T18:54:18.066Z,95.30
2019-03-15T18:56:48.511Z,95.60
2019-03-15T18:59:18.814Z,95.20
2019-03-15T19:01:49.156Z,95.30
2019-03-15T19:04:20.579Z,95.20
2019-03-15T19:06:50.970Z,95.30
2019-03-15T19:09:21.340Z,95.40
2019-03-15T19:11:51.645Z,95.40
2019-03-15T19:14:21.982Z,95.40
2019-03-15T19:16:52.346Z,95.40
2019-03-15T19:19:22.692Z,95.40
2019-03-15T19:21:53.017Z,95.40
2019-03-15T19:24:23.383Z,95.20
2019-03-15T19:26:53.727Z,95.40
2019-03-15T19:29:24.113Z,95.40
2019-03-15T19:31:54.429Z,95.40
2019-03-15T19:34:24.763Z,95.50
2019-03-15T19:36:55.069Z,95.60
2019-03-15T19:39:25.421Z,95.90
2019-03-15T19:41:55.744Z,96.20
2019-03-15T19:44:26.066Z,96.20
2019-03-15T19:46:56.433Z,96.40
2019-03-15T19:49:28.090Z,96.70
2019-03-15T19:51:58.436Z,96.80
2019-03-15T19:54:31.771Z,96.80
2019-03-15T19:57:00.732Z,97.00
2019-03-15T19:59:31.193Z,97.20
2019-03-15T20:02:01.528Z,97.40
2019-03-15T20:04:32.090Z,97.50
2019-03-15T20:07:02.394Z,97.70
2019-03-15T20:09:32.871Z,98.20
2019-03-15T20:12:03.222Z,98.60
2019-03-15T20:14:33.589Z,98.60
2019-03-15T20:17:07.233Z,98.30
2019-03-15T20:19:37.577Z,98.20
2019-03-15T20:22:08.014Z,98.60
2019-03-15T20:24:38.399Z,98.60
2019-03-15T20:27:08.774Z,98.50
2019-03-15T20:29:39.237Z,99.00
2019-03-15T20:32:09.623Z,99.20
2019-03-15T20:34:40.047Z,99.50
2019-03-15T20:37:10.418Z,99.70
2019-03-15T20:39:40.809Z,99.80
2019-03-15T20:42:11.271Z,99.90
2019-03-15T20:44:41.765Z,99.90
2019-03-15T20:47:12.071Z,99.90
2019-03-15T20:49:42.400Z,99.90
2019-03-15T20:52:12.825Z,99.90
2019-03-15T20:54:43.255Z,99.90
2019-03-15T20:57:16.494Z,99.90
2019-03-15T20:59:46.832Z,99.90
2019-03-15T21:02:17.326Z,99.90
2019-03-15T21:04:47.923Z,99.90
2019-03-15T21:07:18.523Z,99.90
2019-03-15T21:09:48.921Z,99.90
2019-03-15T21:12:19.414Z,99.60
2019-03-15T21:14:49.905Z,99.40
2019-03-15T21:17:20.303Z,99.50
2019-03-15T21:19:50.690Z,99.30
2019-03-15T21:22:21.052Z,99.20
2019-03-15T21:24:52.517Z,99.10
2019-03-15T21:27:23.119Z,99.10
2019-03-15T21:29:53.500Z,99.20
2019-03-15T21:32:23.926Z,99.20
2019-03-15T21:34:55.839Z,99.10
2019-03-15T21:37:29.571Z,99.10
2019-03-15T21:39:58.660Z,99.00
2019-03-15T21:42:29.365Z,98.90
2019-03-15T21:44:59.952Z,98.90
2019-03-15T21:47:30.756Z,98.80
2019-03-15T21:50:06.138Z,98.80
2019-03-15T21:52:36.732Z,98.80
2019-03-15T21:55:07.184Z,98.80
2019-03-15T21:57:43.297Z,98.90
2019-03-15T22:00:20.327Z,98.80
2019-03-15T22:02:51.070Z,98.80
2019-03-15T22:05:25.476Z,98.70
2019-03-15T22:07:56.029Z,98.80
2019-03-15T22:10:26.792Z,98.90
2019-03-15T22:12:58.016Z,99.20
2019-03-15T22:15:29.323Z,99.20
2019-03-15T22:17:59.807Z,99.30
2019-03-15T22:20:30.396Z,99.20
2019-03-15T22:23:01.090Z,99.00
2019-03-15T22:25:31.654Z,99.10
2019-03-15T22:28:02.151Z,99.10
2019-03-15T22:30:32.965Z,99.20
2019-03-15T22:33:03.414Z,99.10
2019-03-15T22:35:36.067Z,99.20
2019-03-15T22:38:08.138Z,99.30
2019-03-15T22:40:38.780Z,99.50
2019-03-15T22:43:09.308Z,99.60
2019-03-15T22:45:39.718Z,99.70
2019-03-15T22:48:10.172Z,99.90
2019-03-15T22:50:41.278Z,99.90
2019-03-15T22:53:11.771Z,99.90
2019-03-15T22:55:42.219Z,99.90
2019-03-15T22:58:12.851Z,99.80
2019-03-15T23:00:44.583Z,99.70
2019-03-15T23:03:15.327Z,99.90
2019-03-15T23:05:46.720Z,99.90
2019-03-15T23:08:17.100Z,99.90
2019-03-15T23:10:49.622Z,99.90
2019-03-15T23:13:20.186Z,99.90
2019-03-15T23:15:51.046Z,99.90
2019-03-15T23:18:21.579Z,99.90
2019-03-15T23:20:52.162Z,99.90
2019-03-15T23:23:24.042Z,99.90
2019-03-15T23:25:55.874Z,99.90
2019-03-15T23:28:27.448Z,99.90
2019-03-15T23:30:58.005Z,99.90
2019-03-15T23:33:28.454Z,99.90
2019-03-15T23:36:00.041Z,99.90
2019-03-15T23:38:30.530Z,99.90
2019-03-15T23:41:00.934Z,99.90
2019-03-15T23:43:33.725Z,99.90
2019-03-15T23:46:04.104Z,99.90
2019-03-15T23:48:34.672Z,99.90
2019-03-15T23:51:05.145Z,99.90
2019-03-15T23:53:35.568Z,99.90
2019-03-15T23:56:05.934Z,99.90
2019-03-15T23:58:36.381Z,99.90
